Time;durP1;ratioP1;P1;durP2;ratioP2;P2;SDS_P1;SDS_P2;PMS_P1;PMS_P2;Temp;Humidity;BMP_temperature;BMP_pressure;BME280_temperature;BME280_humidity;BME280_pressure;Samples;Min_cycle;Max_cycle;Signal;HPM_P1;HPM_P2
2022/04/06 00:00:47;;;;;;;9.55;7.55;;;9.90;77.20;;;;;;4958824;28;20486;-64
2022/04/06 00:03:14;;;;;;;10.75;8.02;;;9.90;77.30;;;;;;4975640;28;20161;-64
2022/04/06 00:05:40;;;;;;;10.85;7.88;;;9.90;77.50;;;;;;4965325;28;20090;-65
2022/04/06 00:08:06;;;;;;;11.07;7.57;;;9.90;77.40;;;;;;4953523;28;20035;-65
2022/04/06 00:10:32;;;;;;;9.40;7.32;;;9.90;77.50;;;;;;4973476;28;20048;-66
2022/04/06 00:12:59;;;;;;;9.35;7.25;;;9.90;77.60;;;;;;4975725;28;20441;-65
2022/04/06 00:15:24;;;;;;;11.20;7.07;;;9.90;77.50;;;;;;4977797;28;20061;-65
2022/04/06 00:17:50;;;;;;;12.00;7.03;;;9.90;77.50;;;;;;4966994;28;20035;-65
2022/04/06 00:20:16;;;;;;;9.15;6.82;;;9.90;77.60;;;;;;4973884;28;20144;-64
2022/04/06 00:22:42;;;;;;;8.43;7.43;;;9.90;77.50;;;;;;4978535;28;20030;-65
2022/04/06 00:25:08;;;;;;;8.23;6.88;;;9.90;77.50;;;;;;4973296;28;20454;-65
2022/04/06 00:27:34;;;;;;;9.48;6.93;;;9.90;77.50;;;;;;4959937;28;20050;-66
2022/04/06 00:30:00;;;;;;;9.50;7.40;;;9.90;77.50;;;;;;4971320;28;20031;-65
2022/04/06 00:32:26;;;;;;;10.77;7.72;;;10.00;77.70;;;;;;4978188;28;20688;-65
2022/04/06 00:37:37;;;;;;;12.80;7.57;;;10.00;77.60;;;;;;4969817;28;20088;-65
2022/04/06 00:40:04;;;;;;;10.77;7.35;;;10.00;77.30;;;;;;4978444;28;20061;-65
2022/04/06 00:42:30;;;;;;;10.35;8.02;;;10.00;77.30;;;;;;4962331;28;20570;-65
2022/04/06 00:44:55;;;;;;;9.02;7.55;;;10.00;77.30;;;;;;4963738;28;20125;-65
2022/04/06 00:47:21;;;;;;;9.32;7.63;;;10.00;77.30;;;;;;4970704;28;20037;-65
2022/04/06 00:49:47;;;;;;;9.48;7.47;;;10.00;77.30;;;;;;4969764;28;20110;-65
2022/04/06 00:52:13;;;;;;;9.43;7.45;;;10.00;77.30;;;;;;4977705;28;20035;-65
2022/04/06 00:54:39;;;;;;;8.98;7.28;;;9.90;77.30;;;;;;4959966;28;20061;-65
2022/04/06 00:57:05;;;;;;;8.73;7.03;;;10.00;77.40;;;;;;4963397;28;20506;-65
2022/04/06 00:59:31;;;;;;;8.13;7.13;;;10.00;77.50;;;;;;4978478;28;20117;-64
2022/04/06 01:01:58;;;;;;;11.55;7.30;;;10.00;77.50;;;;;;4979844;28;20410;-65
2022/04/06 01:04:23;;;;;;;8.95;7.00;;;10.00;78.40;;;;;;4966109;28;20125;-65
2022/04/06 01:06:50;;;;;;;9.00;7.30;;;10.00;77.60;;;;;;4958509;28;20113;-65
2022/04/06 01:09:16;;;;;;;8.93;7.38;;;10.00;77.50;;;;;;4978140;28;20034;-66
2022/04/06 01:11:45;;;;;;;8.35;6.97;;;10.00;77.70;;;;;;4975624;28;20449;-65
2022/04/06 01:14:11;;;;;;;7.60;6.80;;;10.00;77.60;;;;;;4977479;28;20035;-66
2022/04/06 01:16:38;;;;;;;7.97;6.35;;;10.00;77.50;;;;;;4959461;28;20050;-65
2022/04/06 01:19:04;;;;;;;9.38;6.65;;;10.00;77.50;;;;;;4959502;28;20035;-66
2022/04/06 01:21:30;;;;;;;7.90;6.30;;;10.00;77.40;;;;;;4964579;28;20039;-65
2022/04/06 01:23:56;;;;;;;9.27;6.50;;;10.00;77.40;;;;;;4967270;28;20387;-65
2022/04/06 01:26:22;;;;;;;9.60;6.78;;;10.10;77.40;;;;;;4973008;28;20536;-65
2022/04/06 01:28:48;;;;;;;7.50;5.75;;;10.00;77.40;;;;;;4974413;28;20030;-67
2022/04/06 01:31:14;;;;;;;8.20;6.78;;;10.10;77.50;;;;;;4967947;28;20696;-66
2022/04/06 01:33:39;;;;;;;8.18;6.40;;;10.00;77.40;;;;;;4955214;28;20113;-66
2022/04/06 01:36:05;;;;;;;8.05;6.47;;;10.10;77.50;;;;;;4967479;28;20417;-66
2022/04/06 01:38:31;;;;;;;9.85;6.25;;;10.10;77.50;;;;;;4975499;28;20057;-64
2022/04/06 01:40:56;;;;;;;8.70;5.97;;;10.10;77.40;;;;;;4973944;28;20560;-65
2022/04/06 01:43:23;;;;;;;7.63;5.93;;;10.10;77.30;;;;;;4976048;28;20046;-65
2022/04/06 01:45:48;;;;;;;6.80;5.95;;;10.10;77.30;;;;;;4974905;28;20169;-66
2022/04/06 01:48:15;;;;;;;7.85;6.22;;;10.10;77.30;;;;;;4977059;28;20125;-66
2022/04/06 01:53:26;;;;;;;7.30;6.10;;;10.10;78.10;;;;;;4974667;28;20121;-65
2022/04/06 01:55:53;;;;;;;6.53;5.40;;;10.10;77.20;;;;;;4973834;28;20038;-65
2022/04/06 01:58:18;;;;;;;8.07;6.00;;;10.10;77.60;;;;;;4973497;28;20045;-65
2022/04/06 02:00:44;;;;;;;6.43;5.72;;;10.10;77.20;;;;;;4974928;28;20046;-65
2022/04/06 02:03:09;;;;;;;7.07;6.38;;;10.10;77.20;;;;;;4976893;28;20081;-65
2022/04/06 02:05:35;;;;;;;7.95;6.10;;;10.10;77.20;;;;;;4975583;28;20291;-65
2022/04/06 02:08:01;;;;;;;6.95;6.03;;;10.10;77.20;;;;;;4974993;28;20520;-65
2022/04/06 02:10:28;;;;;;;8.45;5.63;;;10.10;77.20;;;;;;4973128;28;20714;-64
2022/04/06 02:12:58;;;;;;;6.47;5.65;;;10.10;77.20;;;;;;4976069;28;20168;-65
2022/04/06 02:15:24;;;;;;;7.03;5.45;;;10.20;77.30;;;;;;4975831;28;20046;-65
2022/04/06 02:17:50;;;;;;;6.00;5.28;;;10.10;77.10;;;;;;4976098;28;20113;-65
2022/04/06 02:20:17;;;;;;;6.45;5.65;;;10.20;77.20;;;;;;4975100;28;20035;-64
2022/04/06 02:22:43;;;;;;;7.80;5.97;;;10.20;77.20;;;;;;4975664;28;20042;-65
2022/04/06 02:25:12;;;;;;;7.07;5.38;;;10.20;77.20;;;;;;4975332;28;20037;-65
2022/04/06 02:28:05;;;;;;;5.90;5.03;;;10.20;77.20;;;;;;4973762;28;20043;-65
2022/04/06 02:30:31;;;;;;;8.02;5.20;;;10.20;77.50;;;;;;4973349;28;20038;-65
2022/04/06 02:32:56;;;;;;;6.85;5.20;;;10.20;77.00;;;;;;4974059;28;20038;-64
2022/04/06 02:35:22;;;;;;;7.63;5.53;;;10.20;77.90;;;;;;4965801;28;20590;-65
2022/04/06 02:37:48;;;;;;;8.45;5.90;;;10.20;77.00;;;;;;4954822;28;20046;-65
2022/04/06 02:40:15;;;;;;;6.95;5.63;;;10.20;77.00;;;;;;4968969;28;20318;-66
2022/04/06 02:42:42;;;;;;;6.88;5.70;;;10.20;77.10;;;;;;4971521;28;20066;-65
2022/04/06 02:45:08;;;;;;;6.18;5.57;;;10.10;77.00;;;;;;4974025;28;20121;-65
2022/04/06 02:47:33;;;;;;;6.93;5.80;;;10.10;77.00;;;;;;4974163;28;20038;-65
2022/04/06 02:49:59;;;;;;;7.40;5.65;;;10.10;77.00;;;;;;4982413;28;20186;-65
2022/04/06 02:52:25;;;;;;;8.13;5.75;;;10.10;77.00;;;;;;4958879;28;20077;-65
2022/04/06 02:54:52;;;;;;;7.68;5.97;;;10.10;77.00;;;;;;4960452;28;20306;-65
2022/04/06 02:57:17;;;;;;;7.82;6.18;;;10.10;77.00;;;;;;4978086;28;20034;-63
2022/04/06 02:59:43;;;;;;;7.53;6.00;;;10.10;77.00;;;;;;4979271;28;20040;-66
2022/04/06 03:02:09;;;;;;;6.82;5.80;;;10.10;77.00;;;;;;4975663;28;20045;-65
2022/04/06 03:04:34;;;;;;;7.88;5.85;;;10.10;77.00;;;;;;4979200;28;20080;-65
2022/04/06 03:07:00;;;;;;;7.13;5.78;;;10.10;77.00;;;;;;4978440;28;20528;-65
2022/04/06 03:09:25;;;;;;;7.10;5.85;;;10.10;77.00;;;;;;4974871;28;20331;-65
2022/04/06 03:11:51;;;;;;;7.38;5.90;;;10.10;77.00;;;;;;4976252;28;20038;-65
2022/04/06 03:14:16;;;;;;;6.95;6.15;;;10.10;77.00;;;;;;4977818;28;20039;-65
2022/04/06 03:16:42;;;;;;;7.25;6.28;;;10.10;77.20;;;;;;4978126;28;20394;-65
2022/04/06 03:19:08;;;;;;;8.32;6.47;;;10.10;77.20;;;;;;4976816;28;20084;-67
2022/04/06 03:21:33;;;;;;;7.13;6.18;;;10.00;77.20;;;;;;4977807;28;20305;-65
2022/04/06 03:23:59;;;;;;;8.38;6.78;;;10.10;77.30;;;;;;4978949;28;20035;-65
2022/04/06 03:26:24;;;;;;;7.43;6.60;;;10.00;77.30;;;;;;4976655;28;20085;-65
2022/04/06 03:28:50;;;;;;;9.95;6.95;;;10.00;78.20;;;;;;4977125;28;20234;-65
2022/04/06 03:31:16;;;;;;;8.65;6.65;;;10.00;77.40;;;;;;4980532;28;20930;-64
2022/04/06 03:33:41;;;;;;;8.57;6.93;;;10.00;77.30;;;;;;4979027;28;20125;-67
2022/04/06 03:36:08;;;;;;;8.18;6.57;;;10.00;77.30;;;;;;4977897;28;20492;-65
2022/04/06 03:38:34;;;;;;;7.82;6.60;;;10.10;77.40;;;;;;4976599;28;20041;-64
2022/04/06 03:40:59;;;;;;;8.38;6.50;;;10.00;77.30;;;;;;4977913;28;20030;-65
2022/04/06 03:43:25;;;;;;;8.60;6.70;;;10.10;77.40;;;;;;4977056;28;20035;-65
2022/04/06 03:45:50;;;;;;;8.77;6.28;;;10.10;77.40;;;;;;4977038;28;20049;-65
2022/04/06 03:48:16;;;;;;;7.28;6.57;;;10.10;77.40;;;;;;4978364;28;21127;-65
2022/04/06 03:50:42;;;;;;;8.82;6.45;;;10.10;77.40;;;;;;4977761;28;20034;-66
2022/04/06 03:53:07;;;;;;;7.88;6.45;;;10.10;77.40;;;;;;4976114;28;20097;-64
2022/04/06 03:55:33;;;;;;;7.20;6.47;;;10.10;77.30;;;;;;4977430;28;20042;-65
2022/04/06 03:57:59;;;;;;;9.50;6.63;;;10.10;77.40;;;;;;4977379;28;20430;-65
2022/04/06 04:00:24;;;;;;;7.65;6.60;;;10.10;77.50;;;;;;4976495;28;20039;-66
2022/04/06 04:02:50;;;;;;;8.73;6.70;;;10.10;77.50;;;;;;4974327;28;20398;-65
2022/04/06 04:05:17;;;;;;;9.23;6.20;;;10.10;77.50;;;;;;4953925;28;20621;-65
2022/04/06 04:07:46;;;;;;;8.80;7.05;;;10.00;77.40;;;;;;4969121;28;20121;-66
2022/04/06 04:10:12;;;;;;;8.80;7.28;;;10.10;77.60;;;;;;4977280;28;20341;-66
2022/04/06 04:12:39;;;;;;;8.27;7.10;;;10.10;77.50;;;;;;4975468;28;20035;-65
2022/04/06 04:15:05;;;;;;;8.15;6.18;;;10.10;77.70;;;;;;4976013;28;20241;-66
2022/04/06 04:17:31;;;;;;;7.82;6.28;;;10.10;77.50;;;;;;4977649;28;20088;-66
2022/04/06 04:19:56;;;;;;;6.68;5.97;;;10.00;77.50;;;;;;4975514;28;20039;-65
2022/04/06 04:22:22;;;;;;;7.20;6.32;;;10.10;77.50;;;;;;4975917;28;20039;-64
2022/04/06 04:24:48;;;;;;;7.05;6.22;;;10.10;77.60;;;;;;4974334;28;20482;-64
2022/04/06 04:27:13;;;;;;;8.15;6.60;;;10.00;77.60;;;;;;4975000;28;20093;-66
2022/04/06 04:29:39;;;;;;;8.88;6.53;;;10.00;77.50;;;;;;4978706;28;20521;-65
2022/04/06 04:32:05;;;;;;;7.25;5.90;;;10.00;77.70;;;;;;4976512;28;20031;-65
2022/04/06 04:34:30;;;;;;;7.13;6.43;;;10.00;77.80;;;;;;4978019;28;20046;-65
2022/04/06 04:36:57;;;;;;;7.53;6.45;;;10.00;77.90;;;;;;4976540;28;20468;-66
2022/04/06 04:39:22;;;;;;;9.95;6.43;;;10.00;77.90;;;;;;4979136;28;20066;-65
2022/04/06 04:41:49;;;;;;;9.73;6.57;;;10.00;77.90;;;;;;4980197;28;20518;-65
2022/04/06 04:44:14;;;;;;;8.60;6.00;;;10.00;77.90;;;;;;4978375;28;20100;-65
2022/04/06 04:46:40;;;;;;;9.05;6.57;;;10.00;77.90;;;;;;4978512;28;20497;-66
2022/04/06 04:49:06;;;;;;;7.68;6.40;;;10.00;77.90;;;;;;4977741;28;20121;-66
2022/04/06 04:51:32;;;;;;;8.07;6.65;;;10.00;77.90;;;;;;4979347;28;20035;-64
2022/04/06 04:53:59;;;;;;;7.97;6.57;;;10.00;77.90;;;;;;4978569;28;20035;-68
2022/04/06 04:56:25;;;;;;;8.82;7.40;;;10.00;77.90;;;;;;4976355;28;20125;-68
2022/04/06 04:58:51;;;;;;;10.27;8.30;;;10.00;77.90;;;;;;4977616;28;20043;-68
2022/04/06 05:01:17;;;;;;;7.75;6.78;;;10.00;77.90;;;;;;4977426;28;20042;-68
2022/04/06 05:03:43;;;;;;;8.65;6.32;;;10.00;77.90;;;;;;4978284;28;20042;-65
2022/04/06 05:06:08;;;;;;;8.43;6.22;;;10.00;77.90;;;;;;4981230;28;20030;-69
2022/04/06 05:08:34;;;;;;;7.40;5.90;;;10.10;78.00;;;;;;4979038;28;20478;-68
2022/04/06 05:11:00;;;;;;;11.85;6.68;;;10.10;78.00;;;;;;4975736;28;20409;-67
2022/04/06 05:13:25;;;;;;;10.32;7.03;;;10.10;78.00;;;;;;4978125;28;20043;-69
2022/04/06 05:15:51;;;;;;;8.45;7.30;;;10.10;78.00;;;;;;4978734;28;20414;-69
2022/04/06 05:18:17;;;;;;;9.68;6.85;;;10.10;78.00;;;;;;4977788;28;20117;-67
2022/04/06 05:20:42;;;;;;;9.93;7.07;;;10.10;78.00;;;;;;4978380;28;20030;-66
2022/04/06 05:23:08;;;;;;;10.05;7.53;;;10.10;78.00;;;;;;4978536;28;20438;-65
2022/04/06 05:25:34;;;;;;;10.32;6.72;;;10.10;78.10;;;;;;4977316;28;20034;-64
2022/04/06 05:27:59;;;;;;;9.77;6.80;;;10.10;78.00;;;;;;4978479;28;20559;-68
2022/04/06 05:30:26;;;;;;;8.85;6.80;;;10.10;78.00;;;;;;4975523;28;20129;-69
2022/04/06 05:32:54;;;;;;;7.88;6.35;;;10.10;78.10;;;;;;4975498;28;20038;-69
2022/04/06 05:35:21;;;;;;;9.30;6.90;;;10.10;78.10;;;;;;4980440;28;20078;-67
2022/04/06 05:37:47;;;;;;;9.40;7.50;;;10.10;78.10;;;;;;4978119;28;20089;-67
2022/04/06 05:40:16;;;;;;;7.72;6.38;;;10.00;78.20;;;;;;4975447;28;20034;-67
2022/04/06 05:42:42;;;;;;;10.10;6.90;;;10.10;78.30;;;;;;4975965;28;20067;-69
2022/04/06 05:45:09;;;;;;;8.68;6.63;;;10.10;78.30;;;;;;4975684;28;20129;-68
2022/04/06 05:47:35;;;;;;;10.30;7.25;;;10.10;78.30;;;;;;4976520;28;20063;-68
2022/04/06 05:50:02;;;;;;;9.55;6.50;;;10.10;78.30;;;;;;4976092;28;20060;-68
2022/04/06 05:52:27;;;;;;;13.02;7.30;;;10.10;78.30;;;;;;4982473;28;20185;-68
2022/04/06 05:54:54;;;;;;;12.65;6.72;;;10.10;78.40;;;;;;4977163;28;20513;-68
2022/04/06 05:57:20;;;;;;;9.40;7.38;;;10.10;78.40;;;;;;4977034;28;20116;-67
2022/04/06 05:59:46;;;;;;;11.43;6.82;;;10.10;78.40;;;;;;4975679;28;20031;-69
2022/04/06 06:02:13;;;;;;;8.05;6.95;;;10.10;78.40;;;;;;4977162;28;20038;-68
2022/04/06 06:04:38;;;;;;;8.98;7.00;;;10.20;78.50;;;;;;4975769;28;20023;-65
2022/04/06 06:07:05;;;;;;;9.23;7.38;;;10.20;78.50;;;;;;4977911;28;20451;-65
2022/04/06 06:09:31;;;;;;;7.50;6.75;;;10.10;78.50;;;;;;4977670;28;20035;-66
2022/04/06 06:11:58;;;;;;;11.10;7.80;;;10.20;78.70;;;;;;4974263;28;20204;-65
2022/04/06 06:14:24;;;;;;;11.32;8.15;;;10.20;78.70;;;;;;4976966;28;20026;-65
2022/04/06 06:16:49;;;;;;;10.73;7.78;;;10.20;78.70;;;;;;4975312;28;20046;-65
2022/04/06 06:19:16;;;;;;;11.07;7.00;;;10.10;78.70;;;;;;4965153;28;20251;-65
2022/04/06 06:21:41;;;;;;;12.63;6.93;;;10.20;78.90;;;;;;4977618;28;20162;-65
2022/04/06 06:24:07;;;;;;;9.00;7.18;;;10.20;79.00;;;;;;4968945;28;20117;-65
2022/04/06 06:26:34;;;;;;;9.68;6.88;;;10.20;79.00;;;;;;4962356;28;20028;-65
2022/04/06 06:29:00;;;;;;;7.88;6.55;;;10.20;79.10;;;;;;4978807;28;20034;-65
2022/04/06 06:31:27;;;;;;;9.25;6.55;;;10.20;79.20;;;;;;4972456;28;20171;-64
2022/04/06 06:33:53;;;;;;;8.63;6.40;;;10.20;79.30;;;;;;4961157;28;20042;-65
2022/04/06 06:36:19;;;;;;;11.98;6.75;;;10.30;79.30;;;;;;4975231;28;20042;-65
2022/04/06 06:38:45;;;;;;;8.50;6.28;;;10.30;79.30;;;;;;4977635;28;20047;-66
2022/04/06 06:41:10;;;;;;;9.65;6.57;;;10.30;79.20;;;;;;4961307;28;20507;-65
2022/04/06 06:43:36;;;;;;;13.70;6.20;;;10.40;79.10;;;;;;4971197;28;20096;-65
2022/04/06 06:46:02;;;;;;;7.32;6.03;;;10.40;79.10;;;;;;4978535;28;20414;-63
2022/04/06 06:48:27;;;;;;;8.55;6.07;;;10.40;79.20;;;;;;4964072;28;20124;-66
2022/04/06 06:50:53;;;;;;;7.30;6.38;;;10.50;79.20;;;;;;4960564;28;20125;-66
2022/04/06 06:53:18;;;;;;;11.88;6.38;;;10.50;79.10;;;;;;4979720;28;20049;-65
2022/04/06 06:55:44;;;;;;;10.82;5.93;;;10.50;79.10;;;;;;4968472;28;20146;-65
2022/04/06 06:58:09;;;;;;;6.90;5.47;;;10.60;79.10;;;;;;4972896;28;20026;-64
2022/04/06 07:00:35;;;;;;;9.85;5.75;;;10.70;78.90;;;;;;4961646;28;20054;-64
2022/04/06 07:03:01;;;;;;;7.18;5.40;;;10.70;78.90;;;;;;4965813;28;20472;-64
2022/04/06 07:05:28;;;;;;;6.35;5.60;;;10.70;78.80;;;;;;4984044;28;20047;-65
2022/04/06 07:08:02;;;;;;;10.90;5.70;;;10.80;78.90;;;;;;4981448;28;20077;-65
2022/04/06 07:10:29;;;;;;;7.97;5.50;;;10.80;78.90;;;;;;4976032;28;20141;-65
2022/04/06 07:12:55;;;;;;;9.35;5.50;;;10.90;78.70;;;;;;4964446;28;20569;-65
2022/04/06 07:15:22;;;;;;;6.78;5.38;;;11.00;78.70;;;;;;4970892;28;20419;-66
2022/04/06 07:17:55;;;;;;;6.18;5.57;;;11.00;78.60;;;;;;4960041;28;20498;-65
2022/04/06 07:20:31;;;;;;;6.93;5.43;;;11.10;78.60;;;;;;4975351;28;20046;-66
2022/04/06 07:22:56;;;;;;;9.00;5.47;;;11.20;78.40;;;;;;4974372;28;20109;-65
2022/04/06 07:25:22;;;;;;;6.25;4.60;;;11.20;78.40;;;;;;4967080;28;20525;-65
2022/04/06 07:27:47;;;;;;;10.32;4.78;;;11.30;78.40;;;;;;4969389;28;20038;-68
2022/04/06 07:30:14;;;;;;;5.30;4.15;;;11.40;78.30;;;;;;4959982;28;20039;-68
2022/04/06 07:32:39;;;;;;;5.55;4.60;;;11.40;78.20;;;;;;4978919;28;20042;-68
2022/04/06 07:35:07;;;;;;;3.85;3.35;;;11.50;77.90;;;;;;4972467;28;20461;-65
2022/04/06 07:37:43;;;;;;;5.15;3.95;;;11.60;77.60;;;;;;4964729;28;20561;-66
2022/04/06 07:40:11;;;;;;;5.38;4.35;;;11.60;77.30;;;;;;4964126;28;20061;-65
2022/04/06 07:42:38;;;;;;;3.80;3.40;;;11.70;77.30;;;;;;4961581;28;20035;-66
2022/04/06 07:45:07;;;;;;;5.07;3.47;;;11.80;76.80;;;;;;4978449;28;20405;-65
2022/04/06 07:47:33;;;;;;;4.88;3.25;;;11.80;76.60;;;;;;4969053;28;20077;-64
2022/04/06 07:50:00;;;;;;;8.15;3.90;;;11.90;76.50;;;;;;4957994;28;20042;-66
2022/04/06 07:52:26;;;;;;;9.23;4.18;;;11.90;76.60;;;;;;4975189;28;20413;-64
2022/04/06 07:54:52;;;;;;;9.48;4.88;;;12.00;76.50;;;;;;4974054;28;20507;-66
2022/04/06 07:57:20;;;;;;;7.40;3.72;;;12.10;76.30;;;;;;4959020;28;20043;-66
2022/04/06 07:59:46;;;;;;;7.50;3.45;;;12.20;76.30;;;;;;4970985;28;20042;-65
2022/04/06 08:02:12;;;;;;;6.28;3.20;;;12.20;75.90;;;;;;4974697;28;20043;-66
2022/04/06 08:04:38;;;;;;;6.63;2.70;;;12.20;75.60;;;;;;4960116;28;20028;-65
2022/04/06 08:07:03;;;;;;;5.97;3.00;;;12.30;75.30;;;;;;4964791;28;20502;-65
2022/04/06 08:09:29;;;;;;;4.75;2.60;;;12.30;74.80;;;;;;4980106;28;20046;-65
2022/04/06 08:11:54;;;;;;;5.70;2.13;;;12.40;74.70;;;;;;4964022;28;20035;-65
2022/04/06 08:14:20;;;;;;;4.30;2.13;;;12.40;74.70;;;;;;4980480;28;20039;-65
2022/04/06 08:16:46;;;;;;;5.38;2.30;;;12.40;74.50;;;;;;4958873;28;20039;-66
2022/04/06 08:19:13;;;;;;;4.60;2.25;;;12.40;74.50;;;;;;4965833;28;20100;-66
2022/04/06 08:21:40;;;;;;;8.77;2.50;;;12.50;75.20;;;;;;4978812;28;20402;-65
2022/04/06 08:24:06;;;;;;;3.40;2.20;;;12.60;74.30;;;;;;4965199;28;20035;-65
2022/04/06 08:26:31;;;;;;;2.92;2.10;;;12.60;73.90;;;;;;4960330;28;20514;-65
2022/04/06 08:28:57;;;;;;;3.67;2.40;;;12.60;73.40;;;;;;4979890;28;20034;-65
2022/04/06 08:31:23;;;;;;;2.40;2.10;;;12.70;73.90;;;;;;4971381;28;20494;-65
2022/04/06 08:33:49;;;;;;;4.00;2.05;;;12.70;73.50;;;;;;4958914;28;20066;-66
2022/04/06 08:36:16;;;;;;;3.15;1.88;;;12.70;73.50;;;;;;4973126;28;20034;-67
2022/04/06 08:38:42;;;;;;;3.05;1.70;;;12.80;73.30;;;;;;4982595;28;20050;-65
2022/04/06 08:41:08;;;;;;;3.00;2.20;;;12.80;72.80;;;;;;4979535;28;20034;-65
2022/04/06 08:43:34;;;;;;;4.22;1.90;;;12.90;72.50;;;;;;4968353;28;20045;-66
2022/04/06 08:45:59;;;;;;;4.20;1.98;;;12.90;72.40;;;;;;4958690;28;20066;-66
2022/04/06 08:48:30;;;;;;;2.38;1.88;;;12.90;72.40;;;;;;4974885;28;20045;-66
2022/04/06 08:51:00;;;;;;;4.18;2.00;;;12.90;72.40;;;;;;4972895;28;20043;-66
2022/04/06 08:53:25;;;;;;;5.30;2.00;;;13.00;72.30;;;;;;4957512;28;20098;-65
2022/04/06 08:55:51;;;;;;;3.67;2.42;;;13.00;72.50;;;;;;4971049;28;20034;-66
2022/04/06 08:58:18;;;;;;;2.50;1.85;;;13.10;72.40;;;;;;4982916;28;20039;-66
2022/04/06 09:00:43;;;;;;;2.25;1.92;;;13.10;72.30;;;;;;4959044;28;20105;-66
2022/04/06 09:03:10;;;;;;;4.20;2.10;;;13.20;72.40;;;;;;4964912;28;20038;-65
2022/04/06 09:05:36;;;;;;;3.50;2.08;;;13.30;72.60;;;;;;4978135;28;20111;-66
2022/04/06 09:08:03;;;;;;;3.03;2.10;;;13.40;72.50;;;;;;4962513;28;20263;-68
2022/04/06 09:10:37;;;;;;;2.17;1.88;;;13.40;71.90;;;;;;4957209;28;20073;-65
2022/04/06 09:13:20;;;;;;;2.88;2.17;;;13.50;72.30;;;;;;4976485;28;20081;-66
2022/04/06 09:15:47;;;;;;;5.70;2.35;;;13.60;71.20;;;;;;4968738;28;20106;-65
2022/04/06 09:18:13;;;;;;;3.67;2.03;;;13.60;71.70;;;;;;4960500;28;20051;-65
2022/04/06 09:20:39;;;;;;;2.00;1.90;;;13.70;71.80;;;;;;4977921;28;20042;-67
2022/04/06 09:23:06;;;;;;;4.00;2.10;;;13.80;71.80;;;;;;4974533;28;20035;-65
2022/04/06 09:25:34;;;;;;;5.03;2.08;;;13.90;71.40;;;;;;4959703;28;20151;-65
2022/04/06 09:28:08;;;;;;;2.08;1.60;;;14.00;70.90;;;;;;4972296;28;20061;-66
2022/04/06 09:30:37;;;;;;;1.70;1.53;;;14.10;71.20;;;;;;4975900;28;20100;-68
2022/04/06 09:33:03;;;;;;;2.33;1.50;;;14.20;71.10;;;;;;4959605;28;20091;-65
2022/04/06 09:35:30;;;;;;;2.17;1.65;;;14.20;70.50;;;;;;4965218;28;20053;-66
2022/04/06 09:38:31;;;;;;;2.70;1.40;;;14.30;69.90;;;;;;4977632;28;20035;-66
2022/04/06 09:41:05;;;;;;;3.38;1.50;;;14.40;68.60;;;;;;4941629;28;20031;-66
2022/04/06 09:43:33;;;;;;;3.78;2.33;;;14.50;68.50;;;;;;4976846;28;20035;-66
2022/04/06 09:49:14;;;;;;;9.98;5.35;;;14.50;67.70;;;;;;4978491;28;20038;-66
2022/04/06 09:51:44;;;;;;;13.40;10.73;;;14.60;68.30;;;;;;4968108;28;20038;-65
2022/04/06 09:54:14;;;;;;;2.53;2.33;;;14.60;68.30;;;;;;4957486;28;20547;-65
2022/04/06 09:56:41;;;;;;;2.92;1.98;;;14.70;68.80;;;;;;4975035;28;20433;-65
2022/04/06 09:59:08;;;;;;;3.95;1.73;;;14.70;68.30;;;;;;4976383;28;20058;-66
2022/04/06 10:01:36;;;;;;;1.98;1.73;;;14.80;67.90;;;;;;4962763;28;20402;-66
2022/04/06 10:04:03;;;;;;;2.08;1.88;;;14.80;67.10;;;;;;4992434;28;20069;-65
2022/04/06 10:06:45;;;;;;;2.90;1.80;;;14.90;67.10;;;;;;4994301;28;20048;-66
2022/04/06 10:09:14;;;;;;;1.98;1.58;;;14.90;65.50;;;;;;4960147;28;20046;-66
2022/04/06 10:11:41;;;;;;;1.80;1.70;;;15.00;66.20;;;;;;4960072;28;20093;-65
2022/04/06 10:14:09;;;;;;;2.55;1.70;;;15.00;66.70;;;;;;4975846;28;20031;-66
2022/04/06 10:16:36;;;;;;;2.03;1.80;;;15.00;66.00;;;;;;4965745;28;20099;-64
2022/04/06 10:19:05;;;;;;;1.75;1.65;;;15.00;66.30;;;;;;4968720;28;20096;-65
2022/04/06 10:21:41;;;;;;;2.92;1.83;;;15.10;66.70;;;;;;4980731;28;20185;-65
2022/04/06 10:24:13;;;;;;;1.83;1.55;;;15.10;65.40;;;;;;4967751;28;20419;-65
2022/04/06 10:26:54;;;;;;;6.55;2.10;;;15.20;66.30;;;;;;4977891;28;20117;-65
2022/04/06 10:29:20;;;;;;;2.70;1.88;;;15.30;65.90;;;;;;4969939;28;20039;-66
2022/04/06 10:31:46;;;;;;;4.45;1.40;;;15.40;65.90;;;;;;4980908;28;20698;-65
2022/04/06 10:34:19;;;;;;;4.30;1.52;;;15.40;66.00;;;;;;4982124;28;20035;-66
2022/04/06 10:37:06;;;;;;;2.78;1.80;;;15.50;65.00;;;;;;4980543;28;20046;-65
2022/04/06 10:39:55;;;;;;;3.25;1.70;;;15.60;63.80;;;;;;4972279;28;20045;-67
2022/04/06 10:42:33;;;;;;;1.92;1.83;;;15.60;64.30;;;;;;4952919;28;20039;-65
2022/04/06 10:44:59;;;;;;;1.98;1.80;;;15.70;63.10;;;;;;4981046;28;20038;-67
2022/04/06 10:47:25;;;;;;;3.03;2.10;;;15.80;63.80;;;;;;4971076;28;20043;-67
2022/04/06 10:50:10;;;;;;;2.33;1.80;;;15.80;64.20;;;;;;4974637;28;20034;-65
2022/04/06 10:52:35;;;;;;;4.60;1.77;;;15.90;62.90;;;;;;4963092;28;20039;-65
2022/04/06 10:55:19;;;;;;;3.92;1.80;;;16.00;64.10;;;;;;4965921;28;20044;-66
2022/04/06 10:57:59;;;;;;;4.32;1.38;;;16.00;63.10;;;;;;4981178;28;20046;-64
2022/04/06 11:00:25;;;;;;;2.15;1.95;;;16.10;60.80;;;;;;4961017;28;20600;-64
2022/04/06 11:02:52;;;;;;;2.65;2.00;;;16.20;62.00;;;;;;4964452;28;20069;-65
2022/04/06 11:05:44;;;;;;;4.05;1.70;;;16.20;61.80;;;;;;4980790;28;20049;-64
2022/04/06 11:11:40;;;;;;;1.77;1.48;;;16.20;62.00;;;;;;4978090;28;20412;-65
2022/04/06 11:14:06;;;;;;;4.20;1.33;;;16.30;61.20;;;;;;4980583;28;20032;-65
2022/04/06 11:16:42;;;;;;;3.03;1.40;;;16.40;61.50;;;;;;4960979;28;20418;-65
2022/04/06 11:19:08;;;;;;;3.50;1.60;;;16.40;59.90;;;;;;4968646;28;20133;-65
2022/04/06 11:21:34;;;;;;;2.25;1.20;;;16.50;60.10;;;;;;4984726;28;20114;-65
2022/04/06 11:24:00;;;;;;;1.58;1.30;;;16.60;60.80;;;;;;4967987;28;20042;-66
2022/04/06 11:26:26;;;;;;;2.33;1.40;;;16.60;60.60;;;;;;4957208;28;20042;-66
2022/04/06 11:28:59;;;;;;;2.90;1.20;;;16.70;59.80;;;;;;4980855;28;20109;-66
2022/04/06 11:31:24;;;;;;;2.70;1.15;;;16.80;58.60;;;;;;4973750;28;20057;-65
2022/04/06 11:33:50;;;;;;;1.58;1.08;;;16.80;59.20;;;;;;4971452;28;20510;-67
2022/04/06 11:36:18;;;;;;;0.90;0.90;;;16.80;59.20;;;;;;4967172;28;20050;-66
2022/04/06 11:38:52;;;;;;;1.05;0.90;;;16.80;58.90;;;;;;4963730;28;20050;-66
2022/04/06 11:41:19;;;;;;;6.35;0.98;;;16.80;57.50;;;;;;4979797;28;20035;-66
2022/04/06 11:43:46;;;;;;;1.85;1.00;;;16.80;58.50;;;;;;4968210;28;20034;-67
2022/04/06 11:46:11;;;;;;;1.05;0.80;;;16.80;57.70;;;;;;4960970;28;20059;-66
2022/04/06 11:48:42;;;;;;;0.85;0.80;;;16.80;58.00;;;;;;4978493;28;20065;-65
2022/04/06 11:51:08;;;;;;;1.27;1.05;;;16.80;57.30;;;;;;4975762;28;20569;-66
2022/04/06 11:53:34;;;;;;;4.97;1.40;;;16.90;57.80;;;;;;4959260;28;20038;-67
2022/04/06 11:56:01;;;;;;;1.35;0.90;;;16.90;57.70;;;;;;4972497;28;20035;-66
2022/04/06 11:58:43;;;;;;;2.63;1.30;;;16.90;57.70;;;;;;4979529;28;20056;-66
2022/04/06 12:01:09;;;;;;;1.40;1.00;;;17.00;56.90;;;;;;4961468;28;20027;-65
2022/04/06 12:03:37;;;;;;;0.90;0.70;;;17.00;58.10;;;;;;4967860;28;20034;-66
2022/04/06 12:06:05;;;;;;;2.78;1.10;;;17.00;58.10;;;;;;4980450;28;20113;-66
2022/04/06 12:08:34;;;;;;;0.90;0.75;;;17.10;58.00;;;;;;4961352;28;20066;-66
2022/04/06 12:11:01;;;;;;;1.10;0.95;;;17.10;58.10;;;;;;4959521;28;20534;-65
2022/04/06 12:13:36;;;;;;;1.95;0.65;;;17.20;57.60;;;;;;4959690;28;20035;-65
2022/04/06 12:16:02;;;;;;;;;;;17.30;56.90;;;;;;4973566;28;20093;-65
2022/04/06 12:18:29;;;;;;;0.95;0.50;;;17.30;56.20;;;;;;4980410;28;19913;-65
2022/04/06 12:20:55;;;;;;;1.30;0.70;;;17.40;57.70;;;;;;4963720;28;20027;-66
2022/04/06 12:23:23;;;;;;;1.48;0.75;;;17.50;57.80;;;;;;4972371;28;20387;-66
2022/04/06 12:25:49;;;;;;;1.02;0.70;;;17.50;57.50;;;;;;4961203;28;20038;-66
2022/04/06 12:28:23;;;;;;;0.70;0.70;;;17.50;57.60;;;;;;4975837;28;20102;-66
2022/04/06 12:31:06;;;;;;;1.35;0.70;;;17.60;56.70;;;;;;4975744;28;20034;-66
2022/04/06 12:33:43;;;;;;;1.10;0.70;;;17.70;56.00;;;;;;4960947;28;20043;-65
2022/04/06 12:36:09;;;;;;;1.92;0.80;;;17.70;56.30;;;;;;4975278;28;20059;-66
2022/04/06 12:38:36;;;;;;;1.15;0.90;;;17.70;56.70;;;;;;4984127;28;20097;-66
2022/04/06 12:41:07;;;;;;;1.95;0.77;;;17.70;56.50;;;;;;4960891;28;20034;-66
2022/04/06 12:43:37;;;;;;;4.60;1.00;;;17.70;56.30;;;;;;4970421;28;20035;-67
2022/04/06 12:46:03;;;;;;;1.48;0.70;;;17.70;56.60;;;;;;4979887;28;20040;-63
2022/04/06 12:48:28;;;;;;;1.27;0.88;;;17.80;56.80;;;;;;4963683;28;20034;-66
2022/04/06 12:50:55;;;;;;;0.73;0.73;;;17.80;56.60;;;;;;4965214;28;20034;-65
2022/04/06 12:53:21;;;;;;;1.52;0.82;;;17.90;56.70;;;;;;4980230;28;20035;-66
2022/04/06 12:55:46;;;;;;;1.52;0.88;;;17.90;56.50;;;;;;4968840;28;20034;-66
2022/04/06 12:58:21;;;;;;;1.27;0.90;;;17.90;56.60;;;;;;4960467;28;20031;-67